Time;durP1;ratioP1;P1;durP2;ratioP2;P2;SDS_P1;SDS_P2;PMS_P1;PMS_P2;Temp;Humidity;BMP_temperature;BMP_pressure;BME280_temperature;BME280_humidity;BME280_pressure;Samples;Min_cycle;Max_cycle;Signal;HPM_P1;HPM_P2
2022/01/21 00:02:15;;;;;;;5.80;1.40;;;;;;;-145.18;100.00;46838.16;5070144;28;20060;-74
2022/01/21 00:04:41;;;;;;;13.60;1.80;;;;;;;-145.18;100.00;46834.25;5052444;28;20147;-73
2022/01/21 00:07:06;;;;;;;8.33;1.50;;;;;;;-145.18;100.00;46828.38;5070015;28;20074;-73
2022/01/21 00:09:32;;;;;;;8.23;1.60;;;;;;;-145.18;100.00;46818.63;5069864;28;20511;-73
2022/01/21 00:11:57;;;;;;;6.10;1.73;;;;;;;-145.18;100.00;46822.53;5069652;28;20063;-73
2022/01/21 00:14:22;;;;;;;16.03;2.40;;;;;;;-145.18;100.00;46847.91;5051878;28;20036;-73
2022/01/21 00:16:48;;;;;;;5.67;1.30;;;;;;;-145.18;100.00;46896.75;5070638;28;20489;-73
2022/01/21 00:19:16;;;;;;;5.47;1.07;;;;;;;-145.18;100.00;46890.91;5069754;28;20047;-73
2022/01/21 00:30:16;;;;;;;15.15;2.88;;;;;;;-145.18;100.00;46933.88;5054606;28;20039;-73
2022/01/21 00:32:44;;;;;;;10.98;1.33;;;;;;;-145.18;100.00;46955.34;5069453;28;20119;-73
2022/01/21 00:35:10;;;;;;;15.82;2.15;;;;;;;-145.18;100.00;46937.78;5069366;28;20119;-73
2022/01/21 00:37:36;;;;;;;7.27;1.80;;;;;;;-145.18;100.00;46971.00;5069062;28;20063;-73
2022/01/21 00:40:03;;;;;;;20.30;2.25;;;;;;;-145.18;100.00;46953.41;5069868;28;20037;-73
2022/01/21 00:44:59;;;;;;;14.23;1.67;;;;;;;-145.18;100.00;46967.09;5069811;28;20044;-73
2022/01/21 00:47:25;;;;;;;6.15;0.98;;;;;;;-145.18;100.00;46953.41;5050552;28;20102;-73
2022/01/21 00:49:50;;;;;;;17.83;1.67;;;;;;;-145.18;100.00;46947.53;5070097;28;20040;-73
2022/01/21 00:52:16;;;;;;;6.93;1.23;;;;;;;-145.18;100.00;46949.50;5068818;28;20044;-73
2022/01/21 00:54:41;;;;;;;11.00;1.17;;;;;;;-145.18;100.00;46935.81;5069147;28;20028;-73
2022/01/21 00:57:07;;;;;;;9.87;2.10;;;;;;;-145.18;100.00;46951.44;5068307;28;20448;-73
2022/01/21 00:59:33;;;;;;;9.87;2.10;;;;;;;-145.18;100.00;46937.78;5069201;28;20116;-73
2022/01/21 01:01:59;;;;;;;18.70;1.63;;;;;;;-145.18;100.00;46941.69;5068626;28;20753;-73
2022/01/21 01:04:25;;;;;;;11.63;1.47;;;;;;;-145.18;100.00;46900.66;5069367;28;20095;-73
2022/01/21 01:06:50;;;;;;;9.95;1.60;;;;;;;-145.18;100.00;46912.38;5068431;28;20037;-73
2022/01/21 01:09:16;;;;;;;12.83;1.80;;;;;;;-145.18;100.00;46904.56;5068903;28;20040;-73
2022/01/21 01:22:30;;;;;;;17.40;2.00;;;;;;;-145.18;100.00;46902.63;5068916;28;20082;-73
2022/01/21 01:27:42;;;;;;;30.58;3.42;;;;;;;-145.18;100.00;46931.91;5068550;28;20059;-73
2022/01/21 01:30:21;;;;;;;12.88;1.55;;;;;;;-145.18;100.00;46928.00;5068343;28;20495;-73
2022/01/21 01:32:48;;;;;;;11.23;1.58;;;;;;;-145.18;100.00;46941.69;5068455;28;20090;-73
2022/01/21 01:35:16;;;;;;;8.45;1.63;;;;;;;-145.18;100.00;46929.97;5068150;28;20047;-73
2022/01/21 01:40:20;;;;;;;16.48;1.58;;;;;;;-145.18;100.00;46996.38;5068161;28;20425;-73
2022/01/21 01:50:51;;;;;;;15.55;1.77;;;;;;;-145.18;100.00;46928.00;5068114;28;20404;-73
2022/01/21 01:53:19;;;;;;;17.40;2.22;;;;;;;-145.18;100.00;46916.28;5067665;28;20484;-73
2022/01/21 01:55:45;;;;;;;7.50;0.93;;;;;;;-145.18;100.00;46908.47;5068188;28;20046;-73
2022/01/21 01:58:13;;;;;;;13.30;0.93;;;;;;;-145.18;100.00;46918.25;5067769;28;20471;-73
2022/01/21 02:00:38;;;;;;;28.70;2.13;;;;;;;-145.18;100.00;46887.00;5067726;28;20032;-73
2022/01/21 02:03:05;;;;;;;16.43;1.50;;;;;;;-145.18;100.00;46879.19;5067565;28;20037;-73
2022/01/21 02:05:31;;;;;;;17.70;1.50;;;;;;;-145.18;100.00;46885.03;5067911;28;20272;-73
2022/01/21 02:07:56;;;;;;;12.53;1.30;;;;;;;-145.18;100.00;46867.44;5068265;28;20123;-73
2022/01/21 02:10:22;;;;;;;17.97;1.37;;;;;;;-145.18;100.00;46879.19;5066649;28;20040;-73
2022/01/21 02:12:48;;;;;;;13.20;1.10;;;;;;;-145.18;100.00;46855.72;5049641;28;20040;-73
2022/01/21 02:15:13;;;;;;;15.20;2.15;;;;;;;-145.18;100.00;46857.69;5067709;28;20090;-73
2022/01/21 02:22:50;;;;;;;13.25;1.02;;;;;;;-145.18;100.00;46826.44;5067657;28;20043;-72
2022/01/21 02:25:17;;;;;;;7.13;1.10;;;;;;;-145.18;100.00;46840.09;5067528;28;20036;-72
2022/01/21 02:28:01;;;;;;;9.35;1.42;;;;;;;-145.18;100.00;46875.28;5067243;28;20512;-73
2022/01/21 02:30:26;;;;;;;10.23;1.15;;;;;;;-145.18;100.00;46840.09;5067226;28;20036;-72
2022/01/21 02:32:55;;;;;;;10.13;1.63;;;;;;;-145.18;100.00;46844.00;5067226;28;20029;-73
2022/01/21 02:35:21;;;;;;;6.85;1.23;;;;;;;-145.18;100.00;46853.78;5067329;28;20068;-73
2022/01/21 02:37:48;;;;;;;13.10;1.80;;;;;;;-145.18;100.00;46832.28;5067215;28;20039;-73
2022/01/21 02:40:14;;;;;;;13.98;1.77;;;;;;;-145.18;100.00;46822.53;5067325;28;20071;-73
2022/01/21 02:42:40;;;;;;;17.37;2.20;;;;;;;-145.18;100.00;46826.44;5066928;28;20032;-73
2022/01/21 02:45:09;;;;;;;13.13;2.15;;;;;;;-145.18;100.00;46824.47;5068007;28;20045;-73
2022/01/21 02:47:35;;;;;;;10.25;2.28;;;;;;;-145.18;100.00;46820.56;5066794;28;20455;-73
2022/01/21 02:50:00;;;;;;;12.27;1.57;;;;;;;-145.18;100.00;46828.38;5067299;28;20029;-73
2022/01/21 02:52:29;;;;;;;6.13;1.07;;;;;;;-145.18;100.00;46795.19;5066519;28;20098;-73
2022/01/21 02:54:55;;;;;;;17.88;1.83;;;;;;;-145.18;100.00;46824.47;5067201;28;20511;-73
2022/01/21 02:57:20;;;;;;;12.33;2.10;;;;;;;-145.18;100.00;46799.09;5066737;28;20079;-72
2022/01/21 02:59:46;;;;;;;15.63;2.70;;;;;;;-145.18;100.00;46812.75;5067460;28;20416;-72
2022/01/21 05:32:56;;;;;;;13.07;1.45;;;;;;;-145.18;100.00;46691.66;5053030;28;20120;-72
2022/01/21 05:40:20;;;;;;;21.58;1.27;;;;;;;-145.18;100.00;46689.69;5044034;28;20413;-72
2022/01/21 05:44:14;;;;;;;10.77;2.38;;;;;;;-145.18;100.00;46687.75;5031926;28;20036;-73
2022/01/21 05:47:58;;;;;;;17.95;1.88;;;;;;;-145.18;100.00;46687.75;5028646;28;20053;-72
2022/01/21 05:51:49;;;;;;;16.20;1.33;;;;;;;-145.18;100.00;46687.75;5026155;28;20049;-72
2022/01/21 05:55:39;;;;;;;10.93;2.33;;;;;;;-145.18;100.00;46693.59;5031003;28;20066;-72
2022/01/21 06:03:00;;;;;;;15.30;1.38;;;;;;;-145.18;100.00;46683.84;5045083;28;20455;-72
2022/01/21 06:06:47;;;;;;;9.65;1.40;;;;;;;-145.18;100.00;46683.84;5028642;28;20049;-72
2022/01/21 06:10:31;;;;;;;13.50;1.40;;;;;;;-145.18;100.00;46687.75;5018191;28;20062;-73
2022/01/21 06:14:20;;;;;;;12.80;1.60;;;;;;;-145.18;100.00;46689.69;5046355;28;20045;-72
2022/01/21 10:32:43;;;;;;;19.20;3.88;;;;;;;-145.18;100.00;47113.59;5034239;28;22171;-72
2022/01/21 10:35:35;;;;;;;13.87;1.70;;;;;;;-145.18;100.00;47170.25;4998489;28;20068;-73
2022/01/21 10:38:24;;;;;;;23.23;3.10;;;;;;;-145.18;100.00;47226.91;5042327;28;20165;-72
2022/01/21 10:40:49;;;;;;;11.60;2.00;;;;;;;-145.18;100.00;47246.44;5024048;28;20749;-72
2022/01/21 10:43:18;;;;;;;16.70;2.47;;;;;;;-145.18;100.00;47234.72;5023592;28;20369;-73
2022/01/21 10:45:52;;;;;;;18.03;2.67;;;;;;;-145.18;100.00;47211.28;5023159;28;20084;-73
2022/01/21 10:48:17;;;;;;;13.23;2.13;;;;;;;-145.18;100.00;47121.41;5022461;28;20267;-72
2022/01/21 10:50:43;;;;;;;10.43;2.20;;;;;;;-145.18;100.00;47154.63;5022936;28;20655;-72
2022/01/21 10:53:26;;;;;;;17.23;2.77;;;;;;;-145.18;100.00;47105.78;5023235;28;20045;-73
2022/01/21 10:55:52;;;;;;;18.70;2.70;;;;;;;-145.18;100.00;47097.97;5023498;28;20037;-73
2022/01/21 10:58:19;;;;;;;19.70;2.70;;;;;;;-145.18;100.00;47094.06;5023613;28;20829;-72
2022/01/21 11:00:59;;;;;;;19.90;2.90;;;;;;;-145.18;100.00;47025.69;5023101;28;20045;-72
2022/01/21 11:03:25;;;;;;;18.73;3.07;;;;;;;-145.18;100.00;47010.06;5003835;28;20748;-72
2022/01/21 11:06:07;;;;;;;17.27;2.93;;;;;;;-145.18;100.00;47041.31;5003959;28;20271;-72
2022/01/21 11:08:34;;;;;;;17.63;2.07;;;;;;;-145.18;100.00;47037.41;5003993;28;20279;-72
2022/01/21 11:10:59;;;;;;;11.13;1.60;;;;;;;-145.18;100.00;46996.38;5003517;28;20271;-72
2022/01/21 11:13:26;;;;;;;11.60;2.00;;;;;;;-145.18;100.00;47010.06;5035302;28;20282;-72
2022/01/21 11:15:57;;;;;;;10.43;2.03;;;;;;;-145.18;100.00;46963.19;5003102;28;20405;-72
2022/01/21 11:18:24;;;;;;;12.37;2.13;;;;;;;-145.18;100.00;46953.41;5003473;28;20780;-73
2022/01/21 11:20:57;;;;;;;11.20;1.87;;;;;;;-145.18;100.00;46945.59;5003620;28;20355;-72
2022/01/21 11:23:26;;;;;;;10.87;1.97;;;;;;;-145.18;100.00;46924.09;5002462;28;20308;-72
2022/01/21 11:25:56;;;;;;;15.00;1.67;;;;;;;-145.18;100.00;46898.72;5002477;28;20296;-73
2022/01/21 11:28:24;;;;;;;6.93;1.60;;;;;;;-145.18;100.00;46879.19;5003994;28;20278;-72
2022/01/21 11:30:51;;;;;;;16.57;3.13;;;;;;;-145.18;100.00;46871.38;5002202;28;20303;-72
2022/01/21 11:33:17;;;;;;;19.70;1.80;;;;;;;-145.18;100.00;46844.00;5003553;28;20307;-73
2022/01/21 11:35:43;;;;;;;7.93;1.40;;;;;;;-145.18;100.00;46840.09;5003881;28;20363;-72
2022/01/21 11:38:11;;;;;;;11.47;1.07;;;;;;;-145.18;100.00;46845.97;4998980;28;20848;-72
2022/01/21 11:40:38;;;;;;;5.53;0.80;;;;;;;-145.18;100.00;46849.88;5017897;28;20046;-72
2022/01/21 11:43:08;;;;;;;10.07;1.63;;;;;;;-145.18;100.00;46855.72;4995190;28;20273;-72
2022/01/21 11:50:44;;;;;;;10.87;0.97;;;;;;;-145.18;100.00;46816.66;4989667;28;20296;-72
2022/01/21 11:53:10;;;;;;;10.80;1.40;;;;;;;-145.18;100.00;46824.47;4989238;28;20291;-72
2022/01/21 11:55:45;;;;;;;9.70;1.17;;;;;;;-145.18;100.00;46822.53;4989035;28;20276;-73
2022/01/21 11:58:20;;;;;;;9.05;1.40;;;;;;;-145.18;100.00;46812.75;4989685;28;20050;-72
2022/01/21 12:00:50;;;;;;;11.17;1.43;;;;;;;-145.18;100.00;46830.34;4989478;28;20529;-72
2022/01/21 12:03:18;;;;;;;12.37;2.13;;;;;;;-145.18;100.00;46840.09;4989386;28;20279;-72
2022/01/21 12:05:44;;;;;;;11.43;1.27;;;;;;;-145.18;100.00;46822.53;4989314;28;20276;-72
2022/01/21 12:08:09;;;;;;;18.50;2.00;;;;;;;-145.18;100.00;46847.91;4989137;28;20261;-72
2022/01/21 12:10:40;;;;;;;9.17;1.13;;;;;;;-145.18;100.00;46818.63;4989584;28;20129;-72
2022/01/21 12:13:30;;;;;;;9.50;1.27;;;;;;;-145.18;100.00;46859.63;4989453;28;20050;-72
2022/01/21 12:16:23;;;;;;;9.33;1.97;;;;;;;-145.18;100.00;46840.09;4988960;28;20272;-73
2022/01/21 12:21:34;;;;;;;14.73;1.67;;;;;;;-145.18;100.00;47203.47;4989286;28;20271;-73
2022/01/21 12:24:00;;;;;;;19.97;2.53;;;;;;;-145.18;100.00;47449.63;4987216;28;20367;-73
2022/01/21 12:26:27;;;;;;;11.43;1.90;;;;;;;-145.18;100.00;47519.97;4989480;28;20815;-73
2022/01/21 12:28:52;;;;;;;11.43;1.60;;;;;;;-145.18;100.00;47541.44;4988582;28;20078;-72
2022/01/21 12:31:19;;;;;;;12.20;1.83;;;;;;;-145.18;100.00;47496.50;4989075;28;20364;-73
2022/01/21 12:33:58;;;;;;;18.33;1.73;;;;;;;-145.18;100.00;47451.56;4988670;28;20088;-73
2022/01/21 12:36:28;;;;;;;15.33;2.50;;;;;;;-145.18;100.00;47527.78;4989249;28;20416;-73
2022/01/21 12:41:23;;;;;;;11.60;1.47;;;;;;;-145.18;100.00;47562.94;4989023;28;20291;-72
2022/01/21 12:44:04;;;;;;;10.20;1.63;;;;;;;-145.18;100.00;47566.84;4985785;28;20284;-73
2022/01/21 12:46:44;;;;;;;8.07;1.30;;;;;;;-145.18;100.00;47518.00;4986998;28;20276;-72
2022/01/21 12:49:35;;;;;;;14.47;1.63;;;;;;;-145.18;100.00;47359.75;4988113;28;20304;-72
2022/01/21 12:57:29;;;;;;;16.27;2.43;;;;;;;-145.18;100.00;46912.38;4989053;28;20280;-72
2022/01/21 12:59:58;;;;;;;13.23;2.30;;;;;;;-145.18;100.00;46875.28;4988230;28;20280;-72
2022/01/21 13:02:28;;;;;;;14.13;1.83;;;;;;;-145.18;100.00;46875.28;4988477;28;20284;-72
2022/01/21 13:05:06;;;;;;;15.63;1.63;;;;;;;-145.18;100.00;46859.63;4988174;28;20264;-71
2022/01/21 13:07:34;;;;;;;20.53;2.47;;;;;;;-145.18;100.00;46890.91;4988885;28;20339;-72
2022/01/21 13:10:23;;;;;;;14.43;1.93;;;;;;;-145.18;100.00;46863.53;4986312;28;20280;-72
2022/01/21 13:15:46;;;;;;;16.70;3.15;;;;;;;-145.18;100.00;46861.59;4988217;28;21051;-72
2022/01/21 13:18:23;;;;;;;15.13;2.67;;;;;;;-145.18;100.00;46871.38;4961645;28;20133;-72
2022/01/21 13:20:53;;;;;;;8.90;1.90;;;;;;;-145.18;100.00;46845.97;4988046;28;20788;-72
2022/01/21 13:24:02;;;;;;;14.50;2.43;;;;;;;-145.18;100.00;46867.44;4988123;28;20359;-72
2022/01/21 13:26:31;;;;;;;7.73;1.63;;;;;;;-145.18;100.00;46873.31;4988096;28;20268;-72
2022/01/21 13:29:05;;;;;;;10.90;1.97;;;;;;;-145.18;100.00;46869.41;4987538;28;20753;-72
2022/01/21 13:31:50;;;;;;;14.30;2.47;;;;;;;-145.18;100.00;46867.44;4987995;28;20673;-72
2022/01/21 13:34:20;;;;;;;15.07;1.73;;;;;;;-145.18;100.00;46898.72;4987841;28;20760;-72
2022/01/21 13:36:55;;;;;;;14.87;2.43;;;;;;;-145.18;100.00;46855.72;4987736;28;20436;-72
2022/01/21 13:39:34;;;;;;;22.48;3.17;;;;;;;-145.18;100.00;46902.63;4987519;28;20280;-73
2022/01/21 13:42:11;;;;;;;15.90;2.67;;;;;;;-145.18;100.00;46904.56;4987276;28;20057;-72
2022/01/21 13:44:36;;;;;;;10.73;1.70;;;;;;;-145.18;100.00;46914.34;4987472;28;20795;-72
2022/01/21 13:47:21;;;;;;;12.50;1.97;;;;;;;-145.18;100.00;46926.06;4987824;28;20308;-72
2022/01/21 13:49:47;;;;;;;18.83;1.90;;;;;;;-145.18;100.00;46918.25;4987540;28;20522;-72
2022/01/21 13:52:13;;;;;;;14.53;2.23;;;;;;;-145.18;100.00;46926.06;4987190;28;20276;-72
2022/01/21 13:54:50;;;;;;;19.13;3.00;;;;;;;-145.18;100.00;46963.19;4987198;28;20271;-72
2022/01/21 13:57:15;;;;;;;12.40;3.00;;;;;;;-145.18;100.00;46926.06;4987311;28;20479;-72
2022/01/21 13:59:46;;;;;;;12.10;3.47;;;;;;;-145.18;100.00;46863.53;4987345;28;20360;-72
2022/01/21 14:02:15;;;;;;;11.93;2.33;;;;;;;-145.18;100.00;46863.53;4987180;28;20038;-72
2022/01/21 14:04:53;;;;;;;15.77;2.23;;;;;;;-145.18;100.00;46828.38;4986783;28;20287;-71
2022/01/21 14:07:33;;;;;;;16.97;2.50;;;;;;;-145.18;100.00;46801.03;4987176;28;20721;-72
2022/01/21 14:10:02;;;;;;;18.57;1.73;;;;;;;-145.18;100.00;46785.41;4986670;28;20267;-71
2022/01/21 14:12:29;;;;;;;16.33;2.50;;;;;;;-145.18;100.00;46767.84;4986735;28;20283;-71
2022/01/21 14:14:55;;;;;;;18.50;2.53;;;;;;;-145.18;100.00;46734.63;4986122;28;21027;-72
2022/01/21 14:17:24;;;;;;;14.20;2.33;;;;;;;-145.18;100.00;46724.84;4985789;28;20272;-71
2022/01/21 14:20:00;;;;;;;10.90;1.83;;;;;;;-145.18;100.00;46734.63;4986008;28;20069;-72
2022/01/21 14:22:25;;;;;;;14.70;2.22;;;;;;;-145.18;100.00;46711.19;4987582;28;20276;-72
2022/01/21 14:24:53;;;;;;;12.67;2.43;;;;;;;-145.18;100.00;46711.19;4986810;28;20048;-72
2022/01/21 14:27:30;;;;;;;15.90;2.47;;;;;;;-145.18;100.00;46709.22;4987227;28;20035;-72
2022/01/21 14:30:00;;;;;;;11.33;2.37;;;;;;;-145.18;100.00;46699.47;4985145;28;20353;-72
2022/01/21 14:32:35;;;;;;;16.53;2.17;;;;;;;-145.18;100.00;46703.38;4987075;28;20701;-72
2022/01/21 14:35:40;;;;;;;16.70;2.17;;;;;;;-145.18;100.00;46707.28;4986925;28;20273;-72
2022/01/21 14:38:12;;;;;;;19.60;2.00;;;;;;;-145.18;100.00;46715.09;4945609;28;20310;-71
2022/01/21 14:40:43;;;;;;;14.63;2.67;;;;;;;-145.18;100.00;46701.41;4932049;28;20356;-72
2022/01/21 14:43:15;;;;;;;15.37;2.17;;;;;;;-145.18;100.00;46681.88;4968590;28;20476;-72
2022/01/21 14:45:42;;;;;;;12.93;2.33;;;;;;;-145.18;100.00;46695.56;4987234;28;20331;-72
2022/01/21 14:48:18;;;;;;;17.30;2.60;;;;;;;-145.18;100.00;46693.59;5001692;28;20359;-72
2022/01/21 14:50:46;;;;;;;15.27;2.60;;;;;;;-145.18;100.00;46676.03;4986603;28;20419;-72
2022/01/21 14:53:12;;;;;;;18.00;3.00;;;;;;;-145.18;100.00;46674.06;4986020;28;20769;-71
2022/01/21 14:55:39;;;;;;;16.57;2.57;;;;;;;-145.18;100.00;46676.03;4986819;28;20268;-72
2022/01/21 14:58:23;;;;;;;15.90;2.83;;;;;;;-145.18;100.00;46676.03;4986795;28;20053;-72
2022/01/21 15:00:51;;;;;;;22.93;3.43;;;;;;;-145.18;100.00;46674.06;4986834;28;20260;-72
2022/01/21 15:03:26;;;;;;;17.37;2.80;;;;;;;-145.18;100.00;46668.22;4987083;28;20264;-72
2022/01/21 15:05:55;;;;;;;21.60;3.47;;;;;;;-145.18;100.00;46674.06;4986281;28;20272;-71
2022/01/21 15:08:34;;;;;;;13.80;3.10;;;;;;;-145.18;100.00;46672.13;4986127;28;20715;-72
2022/01/21 15:11:55;;;;;;;35.00;3.50;;;;;;;-145.18;100.00;46670.16;4984580;28;20286;-71
2022/01/21 15:14:26;;;;;;;23.13;3.17;;;;;;;-145.18;100.00;46668.22;4985178;28;20280;-72
2022/01/21 15:17:00;;;;;;;15.00;3.08;;;;;;;-145.18;100.00;46660.41;4984319;28;20129;-71
2022/01/21 15:19:30;;;;;;;25.70;3.37;;;;;;;-145.18;100.00;46668.22;4989206;28;20868;-72
2022/01/21 15:21:57;;;;;;;10.70;2.97;;;;;;;-145.18;100.00;46689.69;4989646;28;20287;-72
2022/01/21 15:24:23;;;;;;;15.50;2.83;;;;;;;-145.18;100.00;46677.97;4981838;28;20776;-72
2022/01/21 15:26:48;;;;;;;32.13;4.77;;;;;;;-145.18;100.00;46705.31;4989797;28;20351;-72
2022/01/21 15:29:13;;;;;;;12.07;2.87;;;;;;;-145.18;100.00;46703.38;4989567;28;20454;-72
2022/01/21 15:31:40;;;;;;;16.27;2.43;;;;;;;-145.18;100.00;46717.03;4989727;28;20071;-72
2022/01/21 15:34:07;;;;;;;18.23;2.77;;;;;;;-145.18;100.00;46738.53;4989367;28;20438;-72
2022/01/21 15:36:33;;;;;;;25.93;2.57;;;;;;;-145.18;100.00;46744.38;4990474;28;20308;-72
2022/01/21 15:39:00;;;;;;;18.93;2.80;;;;;;;-145.18;100.00;46765.88;4989758;28;20275;-72
2022/01/21 15:41:25;;;;;;;13.37;2.73;;;;;;;-145.18;100.00;46799.09;4989471;28;20425;-72
2022/01/21 15:43:51;;;;;;;13.17;2.80;;;;;;;-145.18;100.00;46801.03;4989899;28;20256;-72
2022/01/21 15:46:16;;;;;;;14.97;2.40;;;;;;;-145.18;100.00;46801.03;4989448;28;20090;-72
2022/01/21 15:48:42;;;;;;;11.33;2.53;;;;;;;-145.18;100.00;46840.09;4990368;28;20042;-72
2022/01/21 15:51:07;;;;;;;18.70;2.77;;;;;;;-145.18;100.00;46836.19;4988773;28;20121;-72
2022/01/21 15:53:33;;;;;;;16.67;3.30;;;;;;;-145.18;100.00;46832.28;4989607;28;20530;-72
2022/01/21 15:55:58;;;;;;;7.97;1.93;;;;;;;-145.18;100.00;46836.19;4989145;28;20552;-72
2022/01/21 15:58:24;;;;;;;9.73;2.37;;;;;;;-145.18;100.00;46836.19;4989867;28;20042;-72
2022/01/21 16:00:49;;;;;;;22.30;3.07;;;;;;;-145.18;100.00;46834.25;4989189;28;20174;-72
2022/01/21 16:03:15;;;;;;;13.17;1.83;;;;;;;-145.18;100.00;46822.53;4989531;28;20084;-72
2022/01/21 16:05:43;;;;;;;21.93;2.27;;;;;;;-145.18;100.00;46808.84;4988783;28;20066;-72
2022/01/21 16:08:09;;;;;;;14.20;2.73;;;;;;;-145.18;100.00;46814.72;4989908;28;20057;-72
2022/01/21 16:10:35;;;;;;;14.07;2.50;;;;;;;-145.18;100.00;46820.56;4989387;28;20692;-72
2022/01/21 16:13:00;;;;;;;20.50;3.37;;;;;;;-145.18;100.00;46789.31;4989682;28;20073;-72
2022/01/21 16:15:26;;;;;;;21.63;2.70;;;;;;;-145.18;100.00;46775.66;4989286;28;20088;-72
2022/01/21 16:17:52;;;;;;;15.77;3.00;;;;;;;-145.18;100.00;46777.59;4989493;28;20046;-72
2022/01/21 16:20:17;;;;;;;19.47;2.63;;;;;;;-145.18;100.00;46775.66;4989803;28;20054;-72
2022/01/21 16:22:43;;;;;;;12.73;2.60;;;;;;;-145.18;100.00;46763.91;4988634;28;20552;-72
2022/01/21 16:25:09;;;;;;;13.97;2.67;;;;;;;-145.18;100.00;46763.91;4987178;28;20050;-72
2022/01/21 16:27:35;;;;;;;13.47;3.30;;;;;;;-145.18;100.00;46750.25;4988255;28;20091;-72
2022/01/21 16:30:06;;;;;;;12.90;3.27;;;;;;;-145.18;100.00;46738.53;4987214;28;20054;-72
2022/01/21 16:32:32;;;;;;;10.63;3.33;;;;;;;-145.18;100.00;46765.88;4985341;28;20169;-72
2022/01/21 16:34:58;;;;;;;17.67;2.83;;;;;;;-145.18;100.00;46756.09;4987340;28;20839;-72
2022/01/21 16:37:23;;;;;;;17.00;3.53;;;;;;;-145.18;100.00;46750.25;4987402;28;20046;-72
2022/01/21 16:39:49;;;;;;;16.37;3.43;;;;;;;-145.18;100.00;46750.25;4988631;28;20042;-73
2022/01/21 16:42:14;;;;;;;16.47;2.97;;;;;;;-145.18;100.00;46765.88;4988569;28;20467;-72
2022/01/21 16:44:39;;;;;;;16.87;2.47;;;;;;;-145.18;100.00;46760.00;4988341;28;20041;-72
2022/01/21 16:47:05;;;;;;;21.87;2.70;;;;;;;-145.18;100.00;46758.06;4987863;28;20054;-72
2022/01/21 16:49:30;;;;;;;11.90;2.63;;;;;;;-145.18;100.00;46769.78;4987326;28;20046;-72
2022/01/21 16:51:58;;;;;;;15.10;3.70;;;;;;;-145.18;100.00;46769.78;4987388;28;20038;-72
2022/01/21 16:54:23;;;;;;;20.47;4.13;;;;;;;-145.18;100.00;46758.06;4987742;28;20104;-72
2022/01/21 16:56:56;;;;;;;9.70;2.23;;;;;;;-145.18;100.00;46785.41;4987583;28;20291;-72
2022/01/21 16:59:22;;;;;;;22.13;2.83;;;;;;;-145.18;100.00;46793.22;4988073;28;20782;-72
2022/01/21 17:01:47;;;;;;;17.40;2.67;;;;;;;-145.18;100.00;46781.50;5015863;28;20363;-72
2022/01/21 17:04:13;;;;;;;14.10;2.60;;;;;;;-145.18;100.00;46806.91;4985158;28;20380;-72
2022/01/21 17:06:38;;;;;;;20.83;2.93;;;;;;;-145.18;100.00;46773.69;4987599;28;20130;-72
2022/01/21 17:09:05;;;;;;;15.70;2.23;;;;;;;-145.18;100.00;46818.63;4988584;28;20053;-72
2022/01/21 17:11:31;;;;;;;16.43;2.50;;;;;;;-145.18;100.00;46806.91;4987886;28;20052;-72
2022/01/21 17:13:57;;;;;;;8.57;2.20;;;;;;;-145.18;100.00;46808.84;4988612;28;20276;-72
2022/01/21 17:16:23;;;;;;;16.77;2.97;;;;;;;-145.18;100.00;46820.56;4972228;28;20307;-72
2022/01/21 17:18:49;;;;;;;26.37;2.27;;;;;;;-145.18;100.00;46812.75;4987904;28;20054;-72
2022/01/21 17:21:14;;;;;;;19.07;2.97;;;;;;;-145.18;100.00;46836.19;4988191;28;20039;-72
2022/01/21 17:23:40;;;;;;;11.20;1.77;;;;;;;-145.18;100.00;46826.44;4988443;28;20474;-72
2022/01/21 17:26:05;;;;;;;23.00;3.90;;;;;;;-145.18;100.00;46847.91;4987152;28;20046;-72
2022/01/21 17:28:31;;;;;;;11.20;2.13;;;;;;;-145.18;100.00;46853.78;4988928;28;20574;-72
2022/01/21 17:30:56;;;;;;;13.00;2.07;;;;;;;-145.18;100.00;46844.00;4985987;28;20052;-72
2022/01/21 17:33:21;;;;;;;15.40;2.27;;;;;;;-145.18;100.00;46842.06;4987039;28;20046;-72
2022/01/21 17:35:52;;;;;;;12.90;2.53;;;;;;;-145.18;100.00;46818.63;4986495;28;20035;-72
2022/01/21 17:38:17;;;;;;;12.17;2.00;;;;;;;-145.18;100.00;46840.09;4987523;28;20038;-72
2022/01/21 17:40:44;;;;;;;15.93;2.70;;;;;;;-145.18;100.00;46812.75;4987008;28;20331;-72
2022/01/21 17:43:09;;;;;;;15.10;2.50;;;;;;;-145.18;100.00;46840.09;4987684;28;20046;-72
2022/01/21 17:45:35;;;;;;;17.07;3.70;;;;;;;-145.18;100.00;46842.06;4988278;28;20287;-72
2022/01/21 17:48:00;;;;;;;14.40;2.37;;;;;;;-145.18;100.00;46830.34;4987522;28;20046;-72
2022/01/21 17:50:29;;;;;;;9.17;2.70;;;;;;;-145.18;100.00;46836.19;4987675;28;20045;-72
2022/01/21 17:52:56;;;;;;;14.47;2.60;;;;;;;-145.18;100.00;46824.47;4987772;28;20066;-72
2022/01/21 17:55:22;;;;;;;16.43;2.47;;;;;;;-145.18;100.00;46832.28;4986400;28;20354;-72
2022/01/21 17:57:47;;;;;;;18.00;3.03;;;;;;;-145.18;100.00;46832.28;4986304;28;20272;-72
2022/01/21 18:00:16;;;;;;;18.23;2.17;;;;;;;-145.18;100.00;46828.38;4986489;28;20533;-73
2022/01/21 18:02:42;;;;;;;19.03;2.77;;;;;;;-145.18;100.00;46818.63;4988319;28;20030;-72
2022/01/21 18:05:08;;;;;;;14.07;2.37;;;;;;;-145.18;100.00;46832.28;4987356;28;20266;-72
2022/01/21 18:07:33;;;;;;;12.93;3.00;;;;;;;-145.18;100.00;46834.25;4987744;28;20451;-72
2022/01/21 18:10:07;;;;;;;17.47;3.47;;;;;;;-145.18;100.00;46824.47;4986556;28;20296;-72
2022/01/21 18:12:33;;;;;;;8.80;2.23;;;;;;;-145.18;100.00;46832.28;4987527;28;20043;-72
2022/01/21 18:14:58;;;;;;;11.60;3.20;;;;;;;-145.18;100.00;46826.44;4985768;28;20272;-72
2022/01/21 18:17:23;;;;;;;19.30;3.20;;;;;;;-145.18;100.00;46828.38;4987710;28;20069;-73
2022/01/21 18:19:49;;;;;;;16.57;3.73;;;;;;;-145.18;100.00;46799.09;4986428;28;20042;-72
2022/01/21 18:22:17;;;;;;;16.47;3.27;;;;;;;-145.18;100.00;46812.75;4987678;28;20678;-73
2022/01/21 18:24:43;;;;;;;16.30;2.83;;;;;;;-145.18;100.00;46795.19;4987455;28;20044;-72
2022/01/21 18:27:09;;;;;;;20.10;2.93;;;;;;;-145.18;100.00;46789.31;4986683;28;20431;-73
2022/01/21 18:29:35;;;;;;;16.10;3.07;;;;;;;-145.18;100.00;46797.13;4987399;28;20367;-72
2022/01/21 18:32:01;;;;;;;24.07;3.63;;;;;;;-145.18;100.00;46773.69;4986094;28;20367;-72
2022/01/21 18:34:28;;;;;;;23.63;3.57;;;;;;;-145.18;100.00;46779.56;4987085;28;20046;-73
2022/01/21 18:36:54;;;;;;;21.47;3.57;;;;;;;-145.18;100.00;46769.78;4986355;28;20422;-72
2022/01/21 18:39:20;;;;;;;22.17;4.70;;;;;;;-145.18;100.00;46779.56;4987363;28;20268;-72
2022/01/21 18:41:45;;;;;;;21.70;5.60;;;;;;;-145.18;100.00;46769.78;4986530;28;20743;-72
2022/01/21 18:44:11;;;;;;;17.93;4.13;;;;;;;-145.18;100.00;46763.91;4986012;28;20407;-72
2022/01/21 18:46:38;;;;;;;25.63;4.00;;;;;;;-145.18;100.00;46750.25;4986451;28;20069;-72
2022/01/21 18:49:08;;;;;;;17.10;3.50;;;;;;;-145.18;100.00;46760.00;4986259;28;20027;-72
2022/01/21 18:51:34;;;;;;;22.20;4.53;;;;;;;-145.18;100.00;46754.16;4986452;28;20264;-72
2022/01/21 18:54:01;;;;;;;27.43;4.17;;;;;;;-145.18;100.00;46752.19;4988941;28;20431;-72
2022/01/21 18:56:26;;;;;;;25.90;4.17;;;;;;;-145.18;100.00;46748.28;4990798;28;20268;-73
2022/01/21 18:58:52;;;;;;;20.90;3.70;;;;;;;-145.18;100.00;46736.56;4989621;28;20338;-72
2022/01/21 19:01:22;;;;;;;26.77;4.00;;;;;;;-145.18;100.00;46732.66;4990247;28;20521;-72
2022/01/21 19:03:52;;;;;;;22.63;4.07;;;;;;;-145.18;100.00;46738.53;4990706;28;20045;-72
2022/01/21 19:06:17;;;;;;;21.47;4.17;;;;;;;-145.18;100.00;46717.03;4983963;28;20263;-72
2022/01/21 19:08:43;;;;;;;30.13;5.17;;;;;;;-145.18;100.00;46715.09;4987809;28;20287;-72
2022/01/21 19:11:08;;;;;;;24.67;4.43;;;;;;;-145.18;100.00;46719.00;4990071;28;20116;-72
2022/01/21 19:13:34;;;;;;;24.70;5.30;;;;;;;-145.18;100.00;46711.19;4987662;28;20212;-72
2022/01/21 19:15:59;;;;;;;22.83;4.50;;;;;;;-145.18;100.00;46707.28;4990388;28;20034;-72